createdAt,value
2023-10-07T00:01:03.569Z,11.95
2023-10-07T00:03:40.339Z,11.91
2023-10-07T00:06:11.309Z,11.94
2023-10-07T00:08:40.231Z,12.04
2023-10-07T00:11:13.131Z,12.05
2023-10-07T00:13:44.649Z,11.99
2023-10-07T00:16:15.940Z,11.93
2023-10-07T00:18:44.813Z,11.97
2023-10-07T00:21:28.374Z,12.06
2023-10-07T00:23:59.045Z,12.16
2023-10-07T00:26:28.164Z,12.22
2023-10-07T00:29:03.432Z,12.24
2023-10-07T00:31:35.393Z,12.23
2023-10-07T00:34:07.005Z,12.12
2023-10-07T00:36:35.212Z,12.15
2023-10-07T00:39:10.891Z,12.19
2023-10-07T00:41:46.562Z,12.24
2023-10-07T00:44:24.747Z,12.26
2023-10-07T00:47:17.382Z,12.27
2023-10-07T00:49:50.121Z,12.22
2023-10-07T00:52:29.934Z,12.11
2023-10-07T00:55:09.768Z,12.00
2023-10-07T00:57:38.738Z,12.06
2023-10-07T01:00:24.442Z,12.08
2023-10-07T01:03:05.187Z,12.05
2023-10-07T01:05:36.966Z,11.97
2023-10-07T01:08:07.692Z,11.99
2023-10-07T01:10:39.888Z,11.97
2023-10-07T01:13:27.189Z,11.97
2023-10-07T01:15:55.381Z,12.02
2023-10-07T01:18:23.703Z,12.11
2023-10-07T01:20:51.826Z,12.19
2023-10-07T01:23:24.244Z,12.23
2023-10-07T01:25:52.448Z,12.14
2023-10-07T01:28:22.352Z,12.13
2023-10-07T01:31:10.941Z,12.13
2023-10-07T01:33:40.722Z,12.16
2023-10-07T01:36:17.726Z,12.12
2023-10-07T01:38:52.230Z,12.07
2023-10-07T01:41:23.311Z,12.02
2023-10-07T01:44:01.633Z,11.87
2023-10-07T01:46:32.440Z,11.87
2023-10-07T01:49:05.494Z,11.73
2023-10-07T01:51:34.015Z,11.68
2023-10-07T01:54:05.449Z,11.76
2023-10-07T01:56:34.637Z,11.75
2023-10-07T01:59:15.165Z,11.70
2023-10-07T02:02:05.008Z,11.66
2023-10-07T02:04:34.488Z,11.57
2023-10-07T02:07:03.708Z,11.51
2023-10-07T02:09:37.758Z,11.53
2023-10-07T02:12:10.575Z,11.50
2023-10-07T02:14:40.023Z,11.66
2023-10-07T02:17:09.934Z,11.66
2023-10-07T02:19:41.711Z,11.46
2023-10-07T02:22:21.927Z,11.47
2023-10-07T02:25:01.580Z,11.48
2023-10-07T02:27:39.191Z,11.38
2023-10-07T02:30:17.730Z,11.42
2023-10-07T02:32:48.054Z,11.43
2023-10-07T02:35:21.494Z,11.51
2023-10-07T02:37:52.590Z,11.53
2023-10-07T02:40:23.465Z,11.57
2023-10-07T02:42:53.089Z,11.54
2023-10-07T02:45:26.006Z,11.49
2023-10-07T02:48:02.074Z,11.46
2023-10-07T02:50:32.730Z,11.43
2023-10-07T02:53:04.190Z,11.46
2023-10-07T02:55:46.453Z,11.38
2023-10-07T02:58:28.608Z,11.32
2023-10-07T03:01:12.115Z,11.29
2023-10-07T03:03:50.414Z,11.31
2023-10-07T03:06:18.910Z,11.41
2023-10-07T03:08:47.207Z,11.41
2023-10-07T03:11:25.302Z,11.44
2023-10-07T03:14:00.403Z,11.44
2023-10-07T03:16:29.734Z,11.48
2023-10-07T03:19:03.954Z,11.45
2023-10-07T03:21:41.507Z,11.44
2023-10-07T03:24:12.823Z,11.46
2023-10-07T03:26:44.084Z,11.32
2023-10-07T03:29:30.355Z,11.26
2023-10-07T03:32:01.288Z,11.09
2023-10-07T03:34:29.754Z,10.89
2023-10-07T03:37:09.759Z,10.82
2023-10-07T03:39:58.298Z,10.65
2023-10-07T03:42:26.583Z,10.47
2023-10-07T03:44:54.754Z,10.34
2023-10-07T03:47:23.103Z,10.27
2023-10-07T03:49:54.903Z,10.17
2023-10-07T03:52:29.290Z,10.15
2023-10-07T03:55:01.200Z,10.17
2023-10-07T03:57:29.604Z,10.09
2023-10-07T03:59:59.367Z,9.91
2023-10-07T04:02:30.849Z,9.79
2023-10-07T04:05:11.028Z,9.84
2023-10-07T04:07:39.924Z,9.92
2023-10-07T04:10:20.703Z,10.03
2023-10-07T04:12:50.250Z,10.11
2023-10-07T04:15:19.510Z,10.17
2023-10-07T04:17:49.924Z,10.24
2023-10-07T04:20:23.377Z,10.20
2023-10-07T04:23:02.402Z,10.14
2023-10-07T04:25:32.427Z,10.14
2023-10-07T04:28:00.901Z,9.99
2023-10-07T04:30:40.187Z,9.82
2023-10-07T04:33:11.261Z,9.84
2023-10-07T04:35:40.185Z,9.95
2023-10-07T04:38:20.201Z,10.03
2023-10-07T04:41:06.857Z,10.15
2023-10-07T04:43:39.012Z,10.11
2023-10-07T04:46:23.570Z,10.29
2023-10-07T04:49:14.254Z,10.54
2023-10-07T04:51:42.681Z,10.59
2023-10-07T04:54:24.014Z,10.69
2023-10-07T04:56:55.271Z,10.93
2023-10-07T04:59:25.363Z,11.15
2023-10-07T05:02:13.752Z,11.37
2023-10-07T05:04:43.052Z,11.56
2023-10-07T05:07:12.120Z,12.08
2023-10-07T05:09:40.182Z,12.52
2023-10-07T05:12:08.926Z,13.01
2023-10-07T05:14:37.518Z,13.50
2023-10-07T05:17:11.621Z,14.12
2023-10-07T05:19:39.834Z,14.67
2023-10-07T05:22:15.988Z,15.05
2023-10-07T05:24:48.116Z,15.66
2023-10-07T05:27:17.087Z,16.28
2023-10-07T05:29:48.004Z,16.64
2023-10-07T05:32:18.372Z,16.79
2023-10-07T05:34:49.816Z,17.11
2023-10-07T05:37:18.105Z,17.13
2023-10-07T05:39:46.800Z,17.20
2023-10-07T05:42:14.934Z,17.24
2023-10-07T05:44:43.049Z,17.05
2023-10-07T05:47:11.642Z,16.93
2023-10-07T05:49:40.221Z,16.79
2023-10-07T05:52:08.633Z,16.79
2023-10-07T05:54:36.924Z,17.02
2023-10-07T05:57:06.872Z,17.30
2023-10-07T05:59:35.920Z,17.68
2023-10-07T06:02:08.718Z,17.98
2023-10-07T06:04:37.412Z,17.95
2023-10-07T06:07:08.853Z,18.14
2023-10-07T06:09:43.221Z,18.17
2023-10-07T06:12:13.394Z,18.43
2023-10-07T06:14:41.818Z,18.69
2023-10-07T06:17:12.920Z,18.67
2023-10-07T06:19:41.751Z,18.37
2023-10-07T06:22:13.411Z,18.15
2023-10-07T06:24:43.073Z,17.94
2023-10-07T06:27:21.449Z,17.97
2023-10-07T06:29:51.896Z,18.03
2023-10-07T06:32:27.330Z,17.55
2023-10-07T06:35:00.693Z,17.82
2023-10-07T06:37:31.815Z,17.81
2023-10-07T06:40:01.704Z,18.37
2023-10-07T06:42:30.152Z,18.58
2023-10-07T06:45:03.774Z,18.70
2023-10-07T06:47:33.546Z,19.42
2023-10-07T06:50:04.936Z,20.21
2023-10-07T06:52:34.106Z,21.16
2023-10-07T06:55:09.197Z,21.90
2023-10-07T06:57:38.740Z,22.56
2023-10-07T07:00:13.212Z,22.95
2023-10-07T07:02:45.138Z,23.57
2023-10-07T07:05:17.394Z,24.05
2023-10-07T07:07:48.945Z,24.62
2023-10-07T07:10:17.765Z,25.32
2023-10-07T07:12:46.211Z,25.27
2023-10-07T07:15:27.899Z,23.82
2023-10-07T07:18:14.666Z,24.27
2023-10-07T07:20:50.602Z,23.87
2023-10-07T07:23:22.650Z,24.30
2023-10-07T07:26:07.778Z,24.50
2023-10-07T07:28:36.127Z,24.76
2023-10-07T07:31:11.982Z,25.35
2023-10-07T07:33:40.392Z,25.74
2023-10-07T07:36:20.634Z,26.09
2023-10-07T07:38:49.052Z,26.16
2023-10-07T07:41:35.611Z,26.48
2023-10-07T07:44:11.414Z,25.68
2023-10-07T07:46:57.342Z,24.57
2023-10-07T07:49:29.335Z,23.77
2023-10-07T07:51:57.816Z,23.03
2023-10-07T07:54:26.207Z,22.98
2023-10-07T07:56:56.358Z,23.37
2023-10-07T07:59:25.577Z,22.95
2023-10-07T08:02:03.663Z,22.95
2023-10-07T08:04:51.324Z,23.52
2023-10-07T08:07:28.833Z,24.01
2023-10-07T08:10:05.813Z,23.81
2023-10-07T08:12:37.100Z,23.52
2023-10-07T08:15:14.950Z,24.05
2023-10-07T08:17:46.551Z,24.32
2023-10-07T08:20:16.240Z,24.66
2023-10-07T08:22:47.563Z,25.01
2023-10-07T08:25:34.648Z,25.16
2023-10-07T08:28:19.535Z,25.22
2023-10-07T08:30:50.603Z,25.44
2023-10-07T08:33:25.061Z,25.61
2023-10-07T08:35:53.199Z,25.55
2023-10-07T08:38:22.882Z,25.61
2023-10-07T08:41:06.076Z,25.62
2023-10-07T08:43:39.275Z,25.40
2023-10-07T08:46:13.705Z,25.51
2023-10-07T08:48:50.877Z,25.54
2023-10-07T08:51:24.146Z,24.85
2023-10-07T08:53:58.701Z,24.43
2023-10-07T08:56:29.680Z,23.72
2023-10-07T08:58:58.421Z,21.73
2023-10-07T09:01:27.616Z,22.09
2023-10-07T09:04:02.270Z,22.14
2023-10-07T09:06:34.042Z,22.71
2023-10-07T09:09:07.970Z,22.93
2023-10-07T09:11:40.766Z,23.18
2023-10-07T09:14:11.575Z,23.55
2023-10-07T09:16:43.786Z,23.82
2023-10-07T09:19:14.411Z,24.11
2023-10-07T09:21:46.312Z,24.29
2023-10-07T09:24:26.829Z,24.53
2023-10-07T09:26:58.229Z,24.50
2023-10-07T09:29:30.491Z,24.21
2023-10-07T09:32:06.021Z,23.57
2023-10-07T09:34:48.954Z,23.63
2023-10-07T09:37:27.728Z,23.91
2023-10-07T09:39:56.876Z,23.97
2023-10-07T09:42:28.327Z,24.02
2023-10-07T09:45:22.224Z,23.73
2023-10-07T09:47:50.409Z,23.98
2023-10-07T09:50:28.814Z,23.72
2023-10-07T09:53:23.011Z,23.25
2023-10-07T09:56:22.282Z,23.43
2023-10-07T09:59:15.323Z,23.93
2023-10-07T10:02:28.404Z,24.40
2023-10-07T10:05:27.641Z,24.55
2023-10-07T10:08:14.380Z,24.85
2023-10-07T10:10:46.170Z,24.81
2023-10-07T10:13:31.334Z,24.67
2023-10-07T10:16:05.673Z,24.89
2023-10-07T10:18:37.151Z,24.88
2023-10-07T10:21:07.092Z,24.37
2023-10-07T10:23:35.403Z,23.88
2023-10-07T10:26:15.809Z,24.07
2023-10-07T10:29:01.718Z,24.26
2023-10-07T10:31:33.629Z,24.54
2023-10-07T10:34:16.047Z,24.67
2023-10-07T10:36:50.642Z,24.42
2023-10-07T10:39:42.319Z,24.52
2023-10-07T10:42:16.265Z,24.82
2023-10-07T10:44:49.033Z,24.47
2023-10-07T10:47:19.756Z,24.20
2023-10-07T10:49:55.755Z,24.52
2023-10-07T10:52:24.139Z,24.46
2023-10-07T10:54:54.249Z,24.48
2023-10-07T10:57:25.301Z,24.61
2023-10-07T10:59:53.727Z,24.64
2023-10-07T11:02:22.906Z,24.63
2023-10-07T11:04:52.671Z,24.68
2023-10-07T11:07:22.927Z,24.81
2023-10-07T11:09:55.358Z,24.94
2023-10-07T11:12:28.658Z,24.84
2023-10-07T11:15:14.829Z,24.82
2023-10-07T11:17:54.150Z,24.81
2023-10-07T11:20:25.594Z,24.74
2023-10-07T11:22:54.714Z,24.77
2023-10-07T11:25:29.480Z,24.73
2023-10-07T11:27:59.932Z,24.30
2023-10-07T11:30:28.136Z,24.19
2023-10-07T11:32:56.280Z,23.91
2023-10-07T11:35:31.646Z,23.79
2023-10-07T11:38:00.263Z,23.85
2023-10-07T11:40:31.796Z,23.89
2023-10-07T11:43:05.934Z,23.88
2023-10-07T11:45:34.817Z,23.87
2023-10-07T11:48:05.877Z,23.87
2023-10-07T11:50:36.538Z,23.66
2023-10-07T11:53:08.142Z,23.57
2023-10-07T11:55:37.032Z,23.59
2023-10-07T11:58:09.201Z,23.70
2023-10-07T12:00:38.036Z,23.78
2023-10-07T12:03:09.911Z,23.93
2023-10-07T12:05:44.288Z,24.02
2023-10-07T12:08:15.294Z,24.11
2023-10-07T12:10:43.522Z,24.22
2023-10-07T12:13:16.267Z,24.25
2023-10-07T12:18:15.546Z,23.99
2023-10-07T12:20:44.278Z,23.93
2023-10-07T12:23:12.515Z,23.93
2023-10-07T12:25:42.842Z,23.90
2023-10-07T12:28:11.091Z,23.44
2023-10-07T12:30:39.102Z,23.48
2023-10-07T12:33:17.410Z,23.53
2023-10-07T12:35:52.526Z,23.13
2023-10-07T12:38:21.674Z,23.01
2023-10-07T12:40:50.145Z,23.07
2023-10-07T12:43:18.381Z,23.14
2023-10-07T12:45:49.000Z,23.33
2023-10-07T12:48:17.391Z,23.34
2023-10-07T12:50:51.412Z,23.25
2023-10-07T12:53:19.985Z,23.17
2023-10-07T12:55:50.536Z,23.28
2023-10-07T12:58:19.683Z,23.11
2023-10-07T13:00:52.980Z,23.03
2023-10-07T13:03:21.241Z,23.11
2023-10-07T13:05:49.668Z,23.23
2023-10-07T13:08:17.865Z,23.30
2023-10-07T13:10:47.445Z,23.38
2023-10-07T13:13:15.863Z,23.56
2023-10-07T13:15:44.892Z,23.74
2023-10-07T13:18:14.585Z,23.85
2023-10-07T13:20:42.945Z,23.79
2023-10-07T13:23:13.099Z,23.80
2023-10-07T13:25:41.571Z,23.83
2023-10-07T13:28:11.348Z,23.90
2023-10-07T13:30:40.239Z,24.02
2023-10-07T13:33:08.531Z,24.03
2023-10-07T13:35:38.846Z,23.97
2023-10-07T13:38:12.045Z,23.85
2023-10-07T13:40:40.345Z,23.75
2023-10-07T13:43:11.117Z,23.67
2023-10-07T13:45:39.288Z,23.65
2023-10-07T13:48:09.046Z,23.56
2023-10-07T13:50:40.726Z,23.42
2023-10-07T13:53:08.940Z,23.26
2023-10-07T13:55:43.599Z,23.16
2023-10-07T13:58:16.021Z,23.18
2023-10-07T14:00:55.231Z,22.99
2023-10-07T14:03:33.089Z,22.76
2023-10-07T14:06:03.679Z,22.66
2023-10-07T14:08:37.208Z,22.59
2023-10-07T14:11:08.116Z,22.42
2023-10-07T14:13:37.691Z,22.33
2023-10-07T14:18:47.710Z,22.13
2023-10-07T14:21:16.164Z,22.00
2023-10-07T14:23:44.467Z,21.92
2023-10-07T14:26:15.743Z,21.80
2023-10-07T14:28:47.054Z,21.77
2023-10-07T14:31:19.882Z,21.75
2023-10-07T14:33:48.791Z,21.75
2023-10-07T14:36:16.916Z,21.73
2023-10-07T14:38:45.140Z,21.66
2023-10-07T14:41:14.741Z,21.66
2023-10-07T14:43:44.828Z,21.64
2023-10-07T14:46:13.258Z,21.63
2023-10-07T14:48:46.194Z,21.57
2023-10-07T14:51:15.194Z,21.40
2023-10-07T14:53:43.385Z,21.27
2023-10-07T14:56:12.601Z,21.22
2023-10-07T14:58:41.383Z,21.13
2023-10-07T15:01:10.419Z,21.06
2023-10-07T15:03:38.438Z,20.94
2023-10-07T15:06:16.889Z,20.86
2023-10-07T15:08:45.903Z,20.86
2023-10-07T15:11:19.275Z,20.83
2023-10-07T15:13:50.948Z,20.74
2023-10-07T15:16:22.370Z,20.71
2023-10-07T15:18:51.229Z,20.70
2023-10-07T15:21:22.698Z,20.67
2023-10-07T15:23:51.446Z,20.52
2023-10-07T15:26:19.910Z,20.41
2023-10-07T15:28:49.688Z,20.26
2023-10-07T15:31:26.732Z,20.08
2023-10-07T15:33:57.445Z,19.92
2023-10-07T15:36:26.103Z,19.82
2023-10-07T15:38:54.492Z,19.70
2023-10-07T15:41:22.612Z,19.57
2023-10-07T15:43:51.491Z,19.40
2023-10-07T15:46:19.735Z,19.28
2023-10-07T15:48:48.799Z,19.20
2023-10-07T15:51:19.126Z,19.12
2023-10-07T15:53:47.422Z,19.01
2023-10-07T15:56:19.130Z,18.90
2023-10-07T15:58:48.845Z,18.77
2023-10-07T16:01:17.334Z,18.66
2023-10-07T16:03:45.730Z,18.58
2023-10-07T16:06:16.340Z,18.46
2023-10-07T16:08:45.936Z,18.36
2023-10-07T16:11:19.331Z,18.24
2023-10-07T16:13:47.884Z,18.14
2023-10-07T16:16:16.587Z,18.04
2023-10-07T16:18:46.840Z,17.98
2023-10-07T16:21:17.436Z,17.89
2023-10-07T16:23:46.078Z,17.83
2023-10-07T16:26:15.637Z,17.77
2023-10-07T16:28:45.338Z,17.70
2023-10-07T16:31:14.618Z,17.69
2023-10-07T16:33:43.685Z,17.72
2023-10-07T16:36:11.838Z,17.73
2023-10-07T16:38:42.416Z,17.68
2023-10-07T16:41:18.643Z,17.65
2023-10-07T16:43:47.180Z,17.67
2023-10-07T16:46:16.230Z,17.74
2023-10-07T16:48:44.582Z,17.77
2023-10-07T16:51:14.568Z,17.74
2023-10-07T16:53:43.707Z,17.78
2023-10-07T16:56:14.164Z,17.76
2023-10-07T16:58:42.661Z,17.62
2023-10-07T17:01:11.526Z,17.46
2023-10-07T17:03:39.787Z,17.40
2023-10-07T17:06:08.308Z,17.38
2023-10-07T17:08:37.250Z,17.34
2023-10-07T17:11:05.784Z,17.36
2023-10-07T17:13:33.953Z,17.43
2023-10-07T17:16:02.211Z,17.40
2023-10-07T17:18:30.399Z,17.34
2023-10-07T17:21:00.718Z,17.36
2023-10-07T17:23:29.425Z,17.28
2023-10-07T17:25:57.608Z,17.25
2023-10-07T17:28:26.236Z,17.13
2023-10-07T17:30:54.579Z,17.13
2023-10-07T17:33:22.835Z,17.12
2023-10-07T17:35:51.524Z,17.11
2023-10-07T17:38:22.769Z,17.05
2023-10-07T17:40:50.853Z,16.94
2023-10-07T17:43:19.261Z,16.84
2023-10-07T17:45:47.371Z,16.72
2023-10-07T17:48:19.131Z,16.67
2023-10-07T17:50:47.382Z,16.59
2023-10-07T17:53:17.316Z,16.54
2023-10-07T17:55:46.068Z,16.49
2023-10-07T17:58:14.289Z,16.45
2023-10-07T18:00:42.482Z,16.42
2023-10-07T18:03:13.741Z,16.46
2023-10-07T18:05:44.248Z,16.52
2023-10-07T18:08:12.457Z,16.51
2023-10-07T18:10:40.915Z,16.38
2023-10-07T18:13:09.130Z,16.30
2023-10-07T18:15:41.917Z,16.32
2023-10-07T18:18:10.552Z,16.31
2023-10-07T18:20:38.712Z,16.24
2023-10-07T18:23:07.034Z,16.19
2023-10-07T18:25:37.278Z,16.22
2023-10-07T18:28:05.436Z,16.20
2023-10-07T18:30:33.684Z,15.93
2023-10-07T18:33:03.523Z,15.70
2023-10-07T18:35:32.496Z,15.65
2023-10-07T18:38:01.386Z,15.50
2023-10-07T18:40:29.662Z,15.46
2023-10-07T18:42:57.878Z,15.43
2023-10-07T18:45:25.887Z,15.43
2023-10-07T18:47:57.533Z,15.20
2023-10-07T18:50:26.755Z,15.05
2023-10-07T18:52:55.062Z,15.01
2023-10-07T18:55:23.322Z,15.04
2023-10-07T18:57:52.160Z,15.03
2023-10-07T19:00:20.332Z,14.99
2023-10-07T19:02:48.752Z,14.89
2023-10-07T19:05:17.348Z,14.77
2023-10-07T19:07:46.619Z,14.60
2023-10-07T19:10:17.158Z,14.56
2023-10-07T19:12:48.239Z,14.64
2023-10-07T19:15:17.429Z,14.61
2023-10-07T19:17:48.895Z,14.55
2023-10-07T19:20:17.361Z,14.50
2023-10-07T19:22:45.473Z,14.48
2023-10-07T19:25:15.427Z,14.50
2023-10-07T19:27:44.210Z,14.54
2023-10-07T19:30:14.849Z,14.60
2023-10-07T19:32:43.871Z,14.74
2023-10-07T19:35:14.660Z,14.78
2023-10-07T19:37:42.774Z,14.69
2023-10-07T19:40:11.720Z,14.69
2023-10-07T19:42:40.692Z,14.63
2023-10-07T19:45:11.254Z,14.69
2023-10-07T19:47:44.370Z,14.66
2023-10-07T19:50:12.713Z,14.66
2023-10-07T19:52:41.646Z,14.62
2023-10-07T19:55:10.180Z,14.63
2023-10-07T19:57:38.333Z,14.58
2023-10-07T20:00:07.808Z,14.54
2023-10-07T20:02:36.870Z,14.49
2023-10-07T20:05:05.663Z,14.39
2023-10-07T20:07:36.977Z,14.26
2023-10-07T20:10:10.373Z,14.31
2023-10-07T20:12:40.657Z,14.35
2023-10-07T20:15:09.768Z,14.29
2023-10-07T20:17:39.884Z,14.26
2023-10-07T20:20:11.719Z,14.33
2023-10-07T20:22:40.798Z,14.38
2023-10-07T20:25:10.198Z,14.41
2023-10-07T20:27:40.101Z,14.36
2023-10-07T20:30:08.849Z,14.33
2023-10-07T20:32:37.738Z,14.10
2023-10-07T20:35:09.608Z,13.88
2023-10-07T20:37:38.536Z,13.98
2023-10-07T20:40:08.358Z,14.07
2023-10-07T20:42:36.513Z,14.10
2023-10-07T20:45:05.922Z,14.14
2023-10-07T20:47:34.779Z,14.18
2023-10-07T20:50:07.987Z,14.21
2023-10-07T20:52:36.757Z,14.09
2023-10-07T20:55:06.549Z,14.01
2023-10-07T20:57:35.467Z,14.04
2023-10-07T21:00:06.272Z,14.06
2023-10-07T21:02:35.305Z,14.06
2023-10-07T21:05:03.542Z,13.97
2023-10-07T21:07:32.202Z,13.94
2023-10-07T21:10:00.381Z,13.84
2023-10-07T21:12:28.556Z,13.78
2023-10-07T21:14:56.648Z,13.72
2023-10-07T21:17:25.154Z,13.75
2023-10-07T21:19:54.483Z,13.79
2023-10-07T21:22:22.614Z,13.85
2023-10-07T21:24:50.939Z,13.86
2023-10-07T21:27:19.014Z,13.89
2023-10-07T21:29:47.475Z,13.88
2023-10-07T21:32:16.634Z,13.89
2023-10-07T21:34:44.772Z,13.89
2023-10-07T21:37:12.806Z,13.81
2023-10-07T21:39:40.865Z,13.81
2023-10-07T21:42:09.037Z,13.77
2023-10-07T21:44:37.072Z,13.83
2023-10-07T21:47:05.385Z,13.79
2023-10-07T21:49:33.736Z,13.51
2023-10-07T21:52:01.874Z,13.38
2023-10-07T21:54:30.979Z,13.40
2023-10-07T21:56:59.065Z,13.50
2023-10-07T21:59:27.640Z,13.50
2023-10-07T22:01:55.852Z,13.50
2023-10-07T22:04:23.968Z,13.55
2023-10-07T22:06:52.988Z,13.60
2023-10-07T22:09:21.182Z,13.59
2023-10-07T22:11:51.174Z,13.44
2023-10-07T22:14:19.518Z,13.46
2023-10-07T22:16:47.923Z,13.62
2023-10-07T22:19:16.634Z,13.74
2023-10-07T22:21:44.759Z,13.62
2023-10-07T22:24:15.163Z,13.44
2023-10-07T22:26:43.258Z,13.39
2023-10-07T22:29:12.566Z,13.59
2023-10-07T22:31:48.436Z,13.74
2023-10-07T22:34:18.780Z,13.80
2023-10-07T22:36:46.918Z,13.88
2023-10-07T22:39:32.857Z,13.98
2023-10-07T22:42:13.326Z,13.99
2023-10-07T22:44:47.009Z,14.13
2023-10-07T22:47:15.587Z,14.26
2023-10-07T22:49:46.942Z,14.34
2023-10-07T22:52:15.102Z,14.40
2023-10-07T22:54:51.350Z,14.56
2023-10-07T22:57:19.503Z,14.65
2023-10-07T22:59:48.515Z,14.67
2023-10-07T23:02:26.517Z,14.52
2023-10-07T23:04:58.358Z,14.45
2023-10-07T23:07:27.744Z,14.64
2023-10-07T23:10:00.307Z,14.74
2023-10-07T23:12:29.666Z,14.72
2023-10-07T23:15:00.107Z,14.71
2023-10-07T23:17:32.697Z,14.72
2023-10-07T23:20:27.890Z,14.77
2023-10-07T23:23:13.327Z,14.87
2023-10-07T23:25:43.540Z,14.96
2023-10-07T23:28:32.125Z,14.95
2023-10-07T23:31:12.471Z,14.95
2023-10-07T23:33:40.576Z,14.97
2023-10-07T23:36:18.773Z,15.01
2023-10-07T23:38:50.643Z,14.82
2023-10-07T23:41:26.613Z,14.70
2023-10-07T23:43:56.247Z,14.75
2023-10-07T23:46:24.897Z,14.75
2023-10-07T23:48:58.743Z,14.85
2023-10-07T23:51:33.350Z,14.78
2023-10-07T23:54:05.319Z,14.85
2023-10-07T23:56:34.195Z,14.99
2023-10-07T23:59:11.029Z,15.01
